sensor_id;sensor_type;location;lat;lon;timestamp;P1;durP1;ratioP1;P2;durP2;ratioP2
56291;SDS011;54008;53.606;9.462;2022-08-19T00:01:49;8.57;;;6.00;;
56291;SDS011;54008;53.606;9.462;2022-08-19T00:04:16;11.70;;;5.88;;
56291;SDS011;54008;53.606;9.462;2022-08-19T00:06:44;9.00;;;5.22;;
56291;SDS011;54008;53.606;9.462;2022-08-19T00:09:13;7.63;;;6.30;;
56291;SDS011;54008;53.606;9.462;2022-08-19T00:11:40;7.22;;;5.10;;
56291;SDS011;54008;53.606;9.462;2022-08-19T00:14:08;6.18;;;5.38;;
56291;SDS011;54008;53.606;9.462;2022-08-19T00:16:36;9.40;;;5.57;;
56291;SDS011;54008;53.606;9.462;2022-08-19T00:19:03;10.77;;;5.43;;
56291;SDS011;54008;53.606;9.462;2022-08-19T00:21:29;9.15;;;6.13;;
56291;SDS011;54008;53.606;9.462;2022-08-19T00:23:55;8.55;;;5.95;;
56291;SDS011;54008;53.606;9.462;2022-08-19T00:26:23;9.98;;;6.13;;
56291;SDS011;54008;53.606;9.462;2022-08-19T00:28:49;10.05;;;6.30;;
56291;SDS011;54008;53.606;9.462;2022-08-19T00:31:14;10.00;;;6.20;;
56291;SDS011;54008;53.606;9.462;2022-08-19T00:33:41;12.30;;;6.25;;
56291;SDS011;54008;53.606;9.462;2022-08-19T00:36:07;10.30;;;6.38;;
56291;SDS011;54008;53.606;9.462;2022-08-19T00:38:34;7.68;;;6.88;;
56291;SDS011;54008;53.606;9.462;2022-08-19T00:41:00;9.68;;;6.55;;
56291;SDS011;54008;53.606;9.462;2022-08-19T00:43:26;11.00;;;6.70;;
56291;SDS011;54008;53.606;9.462;2022-08-19T00:45:52;9.85;;;6.60;;
56291;SDS011;54008;53.606;9.462;2022-08-19T00:48:18;9.57;;;6.57;;
56291;SDS011;54008;53.606;9.462;2022-08-19T00:50:44;11.02;;;6.57;;
56291;SDS011;54008;53.606;9.462;2022-08-19T00:53:11;8.75;;;7.03;;
56291;SDS011;54008;53.606;9.462;2022-08-19T00:55:39;8.57;;;6.93;;
56291;SDS011;54008;53.606;9.462;2022-08-19T00:58:08;10.38;;;6.90;;
56291;SDS011;54008;53.606;9.462;2022-08-19T01:00:37;10.40;;;6.97;;
56291;SDS011;54008;53.606;9.462;2022-08-19T01:03:08;10.48;;;6.68;;
56291;SDS011;54008;53.606;9.462;2022-08-19T01:05:37;8.45;;;6.60;;
56291;SDS011;54008;53.606;9.462;2022-08-19T01:08:06;10.82;;;6.32;;
56291;SDS011;54008;53.606;9.462;2022-08-19T01:10:33;10.25;;;6.25;;
56291;SDS011;54008;53.606;9.462;2022-08-19T01:13:02;7.78;;;6.32;;
56291;SDS011;54008;53.606;9.462;2022-08-19T01:15:30;10.07;;;7.70;;
56291;SDS011;54008;53.606;9.462;2022-08-19T01:18:00;10.93;;;7.00;;
56291;SDS011;54008;53.606;9.462;2022-08-19T01:20:30;10.80;;;7.78;;
56291;SDS011;54008;53.606;9.462;2022-08-19T01:22:56;8.27;;;7.07;;
56291;SDS011;54008;53.606;9.462;2022-08-19T01:25:27;10.15;;;8.27;;
56291;SDS011;54008;53.606;9.462;2022-08-19T01:27:56;11.13;;;7.50;;
56291;SDS011;54008;53.606;9.462;2022-08-19T01:30:24;11.82;;;7.57;;
56291;SDS011;54008;53.606;9.462;2022-08-19T01:32:53;9.77;;;8.02;;
56291;SDS011;54008;53.606;9.462;2022-08-19T01:35:19;11.35;;;8.50;;
56291;SDS011;54008;53.606;9.462;2022-08-19T01:37:53;10.80;;;7.50;;
56291;SDS011;54008;53.606;9.462;2022-08-19T01:40:22;12.82;;;8.20;;
56291;SDS011;54008;53.606;9.462;2022-08-19T01:42:51;10.65;;;8.40;;
56291;SDS011;54008;53.606;9.462;2022-08-19T01:45:18;10.10;;;8.35;;
56291;SDS011;54008;53.606;9.462;2022-08-19T01:47:45;9.85;;;7.25;;
56291;SDS011;54008;53.606;9.462;2022-08-19T01:50:11;14.40;;;7.43;;
56291;SDS011;54008;53.606;9.462;2022-08-19T01:52:39;11.82;;;7.50;;
56291;SDS011;54008;53.606;9.462;2022-08-19T01:55:07;9.90;;;7.18;;
56291;SDS011;54008;53.606;9.462;2022-08-19T01:57:34;10.15;;;7.15;;
56291;SDS011;54008;53.606;9.462;2022-08-19T02:00:00;9.65;;;7.40;;
56291;SDS011;54008;53.606;9.462;2022-08-19T02:02:30;10.88;;;7.78;;
56291;SDS011;54008;53.606;9.462;2022-08-19T02:04:56;9.38;;;6.85;;
56291;SDS011;54008;53.606;9.462;2022-08-19T02:07:21;10.37;;;6.47;;
56291;SDS011;54008;53.606;9.462;2022-08-19T02:09:47;8.90;;;5.80;;
56291;SDS011;54008;53.606;9.462;2022-08-19T02:12:13;8.32;;;6.95;;
56291;SDS011;54008;53.606;9.462;2022-08-19T02:14:38;7.93;;;6.55;;
56291;SDS011;54008;53.606;9.462;2022-08-19T02:17:03;8.77;;;6.93;;
56291;SDS011;54008;53.606;9.462;2022-08-19T02:19:29;9.20;;;6.18;;
56291;SDS011;54008;53.606;9.462;2022-08-19T02:21:56;9.35;;;6.22;;
56291;SDS011;54008;53.606;9.462;2022-08-19T02:24:22;9.10;;;6.30;;
56291;SDS011;54008;53.606;9.462;2022-08-19T02:26:47;9.80;;;5.90;;
56291;SDS011;54008;53.606;9.462;2022-08-19T02:29:12;10.70;;;6.17;;
56291;SDS011;54008;53.606;9.462;2022-08-19T02:31:37;7.47;;;5.33;;
56291;SDS011;54008;53.606;9.462;2022-08-19T02:34:03;7.03;;;5.73;;
56291;SDS011;54008;53.606;9.462;2022-08-19T02:36:28;9.30;;;5.50;;
56291;SDS011;54008;53.606;9.462;2022-08-19T02:38:53;10.77;;;5.30;;
56291;SDS011;54008;53.606;9.462;2022-08-19T02:41:21;9.13;;;5.53;;
56291;SDS011;54008;53.606;9.462;2022-08-19T02:43:48;8.38;;;5.90;;
56291;SDS011;54008;53.606;9.462;2022-08-19T02:46:25;8.35;;;5.38;;
56291;SDS011;54008;53.606;9.462;2022-08-19T02:48:52;8.55;;;5.70;;
56291;SDS011;54008;53.606;9.462;2022-08-19T02:51:21;6.95;;;5.45;;
56291;SDS011;54008;53.606;9.462;2022-08-19T02:53:49;10.07;;;6.40;;
56291;SDS011;54008;53.606;9.462;2022-08-19T02:56:14;9.68;;;6.85;;
56291;SDS011;54008;53.606;9.462;2022-08-19T02:58:40;7.35;;;5.50;;
56291;SDS011;54008;53.606;9.462;2022-08-19T03:01:06;9.10;;;5.60;;
56291;SDS011;54008;53.606;9.462;2022-08-19T03:03:32;7.40;;;5.93;;
56291;SDS011;54008;53.606;9.462;2022-08-19T03:06:04;12.45;;;6.72;;
56291;SDS011;54008;53.606;9.462;2022-08-19T03:08:35;7.18;;;5.45;;
56291;SDS011;54008;53.606;9.462;2022-08-19T03:11:01;10.50;;;6.40;;
56291;SDS011;54008;53.606;9.462;2022-08-19T03:13:27;9.15;;;5.78;;
56291;SDS011;54008;53.606;9.462;2022-08-19T03:15:53;11.00;;;7.00;;
56291;SDS011;54008;53.606;9.462;2022-08-19T03:18:18;9.27;;;5.82;;
56291;SDS011;54008;53.606;9.462;2022-08-19T03:20:44;9.90;;;5.82;;
56291;SDS011;54008;53.606;9.462;2022-08-19T03:23:15;8.88;;;6.07;;
56291;SDS011;54008;53.606;9.462;2022-08-19T03:25:42;10.52;;;6.90;;
56291;SDS011;54008;53.606;9.462;2022-08-19T03:28:12;7.82;;;6.18;;
56291;SDS011;54008;53.606;9.462;2022-08-19T03:30:39;9.93;;;6.53;;
56291;SDS011;54008;53.606;9.462;2022-08-19T03:33:07;9.45;;;5.90;;
56291;SDS011;54008;53.606;9.462;2022-08-19T03:35:34;9.65;;;6.93;;
56291;SDS011;54008;53.606;9.462;2022-08-19T03:38:01;8.85;;;6.30;;
56291;SDS011;54008;53.606;9.462;2022-08-19T03:40:28;9.15;;;6.65;;
56291;SDS011;54008;53.606;9.462;2022-08-19T03:42:55;7.88;;;6.55;;
56291;SDS011;54008;53.606;9.462;2022-08-19T03:45:21;7.45;;;5.85;;
56291;SDS011;54008;53.606;9.462;2022-08-19T03:47:46;7.70;;;6.20;;
56291;SDS011;54008;53.606;9.462;2022-08-19T03:50:11;9.82;;;6.72;;
56291;SDS011;54008;53.606;9.462;2022-08-19T03:52:37;9.75;;;6.20;;
56291;SDS011;54008;53.606;9.462;2022-08-19T03:55:02;10.55;;;6.57;;
56291;SDS011;54008;53.606;9.462;2022-08-19T03:57:28;11.65;;;6.80;;
56291;SDS011;54008;53.606;9.462;2022-08-19T03:59:53;10.50;;;7.40;;
56291;SDS011;54008;53.606;9.462;2022-08-19T04:02:19;9.43;;;6.80;;
56291;SDS011;54008;53.606;9.462;2022-08-19T04:04:44;12.07;;;6.43;;
56291;SDS011;54008;53.606;9.462;2022-08-19T04:07:10;11.23;;;6.77;;
56291;SDS011;54008;53.606;9.462;2022-08-19T04:09:38;13.30;;;7.03;;
56291;SDS011;54008;53.606;9.462;2022-08-19T04:12:04;7.78;;;6.28;;
56291;SDS011;54008;53.606;9.462;2022-08-19T04:14:30;9.27;;;6.45;;
56291;SDS011;54008;53.606;9.462;2022-08-19T04:16:57;10.48;;;6.95;;
56291;SDS011;54008;53.606;9.462;2022-08-19T04:19:23;9.20;;;6.40;;
56291;SDS011;54008;53.606;9.462;2022-08-19T04:21:50;14.15;;;7.57;;
56291;SDS011;54008;53.606;9.462;2022-08-19T04:24:17;12.07;;;6.60;;
56291;SDS011;54008;53.606;9.462;2022-08-19T04:26:43;10.80;;;6.35;;
56291;SDS011;54008;53.606;9.462;2022-08-19T04:29:11;10.00;;;6.50;;
56291;SDS011;54008;53.606;9.462;2022-08-19T04:31:39;10.00;;;6.47;;
56291;SDS011;54008;53.606;9.462;2022-08-19T04:34:07;8.40;;;6.32;;
56291;SDS011;54008;53.606;9.462;2022-08-19T04:36:36;8.70;;;7.10;;
56291;SDS011;54008;53.606;9.462;2022-08-19T04:39:08;9.30;;;6.82;;
56291;SDS011;54008;53.606;9.462;2022-08-19T04:41:35;8.13;;;6.82;;
56291;SDS011;54008;53.606;9.462;2022-08-19T04:44:19;12.35;;;7.00;;
56291;SDS011;54008;53.606;9.462;2022-08-19T04:46:45;13.55;;;6.95;;
56291;SDS011;54008;53.606;9.462;2022-08-19T04:49:12;11.52;;;7.45;;
56291;SDS011;54008;53.606;9.462;2022-08-19T04:51:39;9.48;;;6.82;;
56291;SDS011;54008;53.606;9.462;2022-08-19T04:54:06;9.57;;;6.22;;
56291;SDS011;54008;53.606;9.462;2022-08-19T04:56:32;7.97;;;6.77;;
56291;SDS011;54008;53.606;9.462;2022-08-19T04:58:57;10.50;;;6.80;;
56291;SDS011;54008;53.606;9.462;2022-08-19T05:01:23;10.25;;;6.45;;
56291;SDS011;54008;53.606;9.462;2022-08-19T05:03:51;9.07;;;6.40;;
56291;SDS011;54008;53.606;9.462;2022-08-19T05:06:18;8.38;;;7.13;;
56291;SDS011;54008;53.606;9.462;2022-08-19T05:08:44;9.32;;;6.75;;
56291;SDS011;54008;53.606;9.462;2022-08-19T05:11:14;10.32;;;6.15;;
56291;SDS011;54008;53.606;9.462;2022-08-19T05:13:41;10.63;;;6.68;;
56291;SDS011;54008;53.606;9.462;2022-08-19T05:16:08;14.05;;;6.88;;
56291;SDS011;54008;53.606;9.462;2022-08-19T05:18:34;12.13;;;7.00;;
56291;SDS011;54008;53.606;9.462;2022-08-19T05:21:18;9.15;;;7.03;;
56291;SDS011;54008;53.606;9.462;2022-08-19T05:24:04;10.70;;;6.97;;
56291;SDS011;54008;53.606;9.462;2022-08-19T05:26:34;10.48;;;6.88;;
56291;SDS011;54008;53.606;9.462;2022-08-19T05:29:00;9.77;;;6.97;;
56291;SDS011;54008;53.606;9.462;2022-08-19T05:31:25;9.55;;;6.43;;
56291;SDS011;54008;53.606;9.462;2022-08-19T05:33:50;10.30;;;6.47;;
56291;SDS011;54008;53.606;9.462;2022-08-19T05:36:16;9.43;;;5.85;;
56291;SDS011;54008;53.606;9.462;2022-08-19T05:38:41;7.65;;;6.45;;
56291;SDS011;54008;53.606;9.462;2022-08-19T05:41:08;9.10;;;6.60;;
56291;SDS011;54008;53.606;9.462;2022-08-19T05:43:34;9.13;;;6.32;;
56291;SDS011;54008;53.606;9.462;2022-08-19T05:45:59;9.13;;;6.68;;
56291;SDS011;54008;53.606;9.462;2022-08-19T05:48:24;10.77;;;6.77;;
56291;SDS011;54008;53.606;9.462;2022-08-19T05:50:50;10.30;;;7.05;;
56291;SDS011;54008;53.606;9.462;2022-08-19T05:53:15;8.93;;;6.90;;
56291;SDS011;54008;53.606;9.462;2022-08-19T05:55:42;11.13;;;6.55;;
56291;SDS011;54008;53.606;9.462;2022-08-19T05:58:07;11.27;;;7.50;;
56291;SDS011;54008;53.606;9.462;2022-08-19T06:00:33;8.98;;;7.07;;
56291;SDS011;54008;53.606;9.462;2022-08-19T06:02:59;8.70;;;6.78;;
56291;SDS011;54008;53.606;9.462;2022-08-19T06:05:28;10.52;;;6.97;;
56291;SDS011;54008;53.606;9.462;2022-08-19T06:07:54;12.18;;;7.15;;
56291;SDS011;54008;53.606;9.462;2022-08-19T06:10:19;10.87;;;6.70;;
56291;SDS011;54008;53.606;9.462;2022-08-19T06:12:46;9.20;;;6.28;;
56291;SDS011;54008;53.606;9.462;2022-08-19T06:15:12;6.80;;;6.03;;
56291;SDS011;54008;53.606;9.462;2022-08-19T06:17:39;8.73;;;7.70;;
56291;SDS011;54008;53.606;9.462;2022-08-19T06:20:05;8.82;;;6.72;;
56291;SDS011;54008;53.606;9.462;2022-08-19T06:25:05;9.77;;;7.28;;
56291;SDS011;54008;53.606;9.462;2022-08-19T06:27:31;9.25;;;7.22;;
56291;SDS011;54008;53.606;9.462;2022-08-19T06:29:57;9.02;;;7.32;;
56291;SDS011;54008;53.606;9.462;2022-08-19T06:32:23;10.20;;;7.18;;
56291;SDS011;54008;53.606;9.462;2022-08-19T06:34:48;11.67;;;7.90;;
56291;SDS011;54008;53.606;9.462;2022-08-19T06:37:13;13.95;;;7.75;;
56291;SDS011;54008;53.606;9.462;2022-08-19T06:39:39;10.97;;;7.40;;
56291;SDS011;54008;53.606;9.462;2022-08-19T06:42:06;9.70;;;7.22;;
56291;SDS011;54008;53.606;9.462;2022-08-19T06:44:34;10.43;;;7.28;;
56291;SDS011;54008;53.606;9.462;2022-08-19T06:47:04;11.48;;;7.78;;
56291;SDS011;54008;53.606;9.462;2022-08-19T06:49:31;10.20;;;7.50;;
56291;SDS011;54008;53.606;9.462;2022-08-19T06:51:57;9.50;;;6.72;;
56291;SDS011;54008;53.606;9.462;2022-08-19T06:54:23;10.57;;;7.45;;
56291;SDS011;54008;53.606;9.462;2022-08-19T06:56:49;10.05;;;7.13;;
56291;SDS011;54008;53.606;9.462;2022-08-19T06:59:18;11.00;;;6.93;;
56291;SDS011;54008;53.606;9.462;2022-08-19T07:01:48;9.30;;;6.88;;
56291;SDS011;54008;53.606;9.462;2022-08-19T07:04:18;10.00;;;7.10;;
56291;SDS011;54008;53.606;9.462;2022-08-19T07:06:46;11.93;;;7.03;;
56291;SDS011;54008;53.606;9.462;2022-08-19T07:09:12;9.88;;;6.00;;
56291;SDS011;54008;53.606;9.462;2022-08-19T07:11:47;7.53;;;5.85;;
56291;SDS011;54008;53.606;9.462;2022-08-19T07:14:15;9.05;;;6.80;;
56291;SDS011;54008;53.606;9.462;2022-08-19T07:16:43;9.30;;;7.65;;
56291;SDS011;54008;53.606;9.462;2022-08-19T07:19:10;14.63;;;7.50;;
56291;SDS011;54008;53.606;9.462;2022-08-19T07:21:36;9.73;;;7.55;;
56291;SDS011;54008;53.606;9.462;2022-08-19T07:24:01;8.75;;;7.18;;
56291;SDS011;54008;53.606;9.462;2022-08-19T07:26:28;12.65;;;8.00;;
56291;SDS011;54008;53.606;9.462;2022-08-19T07:28:58;9.68;;;7.63;;
56291;SDS011;54008;53.606;9.462;2022-08-19T07:31:25;12.85;;;8.15;;
56291;SDS011;54008;53.606;9.462;2022-08-19T07:33:52;11.02;;;7.78;;
56291;SDS011;54008;53.606;9.462;2022-08-19T07:36:21;14.65;;;8.07;;
56291;SDS011;54008;53.606;9.462;2022-08-19T07:38:49;12.65;;;8.32;;
56291;SDS011;54008;53.606;9.462;2022-08-19T07:41:17;9.55;;;7.80;;
56291;SDS011;54008;53.606;9.462;2022-08-19T07:43:46;10.80;;;7.90;;
56291;SDS011;54008;53.606;9.462;2022-08-19T07:46:12;11.20;;;8.10;;
56291;SDS011;54008;53.606;9.462;2022-08-19T07:48:38;14.85;;;8.35;;
56291;SDS011;54008;53.606;9.462;2022-08-19T07:51:06;13.07;;;8.27;;
56291;SDS011;54008;53.606;9.462;2022-08-19T07:53:33;14.45;;;9.13;;
56291;SDS011;54008;53.606;9.462;2022-08-19T07:55:59;14.15;;;9.02;;
56291;SDS011;54008;53.606;9.462;2022-08-19T07:58:29;11.70;;;9.07;;
56291;SDS011;54008;53.606;9.462;2022-08-19T08:00:56;13.18;;;7.60;;
56291;SDS011;54008;53.606;9.462;2022-08-19T08:03:21;11.93;;;8.38;;
56291;SDS011;54008;53.606;9.462;2022-08-19T08:06:11;15.27;;;9.48;;
56291;SDS011;54008;53.606;9.462;2022-08-19T08:08:56;12.63;;;8.80;;
56291;SDS011;54008;53.606;9.462;2022-08-19T08:11:40;13.98;;;9.05;;
56291;SDS011;54008;53.606;9.462;2022-08-19T08:14:13;15.55;;;8.43;;
56291;SDS011;54008;53.606;9.462;2022-08-19T08:16:40;12.60;;;8.57;;
56291;SDS011;54008;53.606;9.462;2022-08-19T08:19:08;12.80;;;8.85;;
56291;SDS011;54008;53.606;9.462;2022-08-19T08:21:34;10.15;;;8.25;;
56291;SDS011;54008;53.606;9.462;2022-08-19T08:23:59;11.02;;;8.75;;
56291;SDS011;54008;53.606;9.462;2022-08-19T08:26:25;12.38;;;8.70;;
56291;SDS011;54008;53.606;9.462;2022-08-19T08:28:51;16.65;;;10.35;;
56291;SDS011;54008;53.606;9.462;2022-08-19T08:31:17;15.05;;;10.38;;
56291;SDS011;54008;53.606;9.462;2022-08-19T08:33:44;13.02;;;10.63;;
56291;SDS011;54008;53.606;9.462;2022-08-19T08:36:10;17.75;;;10.98;;
56291;SDS011;54008;53.606;9.462;2022-08-19T08:38:39;14.85;;;11.15;;
56291;SDS011;54008;53.606;9.462;2022-08-19T08:41:09;14.82;;;9.73;;
56291;SDS011;54008;53.606;9.462;2022-08-19T08:43:53;14.07;;;9.63;;
56291;SDS011;54008;53.606;9.462;2022-08-19T08:46:36;14.88;;;9.40;;
56291;SDS011;54008;53.606;9.462;2022-08-19T08:54:32;12.95;;;9.88;;
56291;SDS011;54008;53.606;9.462;2022-08-19T08:57:06;13.75;;;9.60;;
56291;SDS011;54008;53.606;9.462;2022-08-19T08:59:38;14.30;;;10.07;;
56291;SDS011;54008;53.606;9.462;2022-08-19T09:02:06;16.02;;;9.43;;
56291;SDS011;54008;53.606;9.462;2022-08-19T09:04:33;15.50;;;9.07;;
56291;SDS011;54008;53.606;9.462;2022-08-19T09:09:47;13.52;;;10.07;;
56291;SDS011;54008;53.606;9.462;2022-08-19T09:15:12;15.07;;;9.30;;
56291;SDS011;54008;53.606;9.462;2022-08-19T09:17:39;14.95;;;10.40;;
56291;SDS011;54008;53.606;9.462;2022-08-19T09:22:36;14.20;;;10.30;;
56291;SDS011;54008;53.606;9.462;2022-08-19T09:25:03;13.40;;;10.23;;
56291;SDS011;54008;53.606;9.462;2022-08-19T09:27:29;18.08;;;10.80;;
56291;SDS011;54008;53.606;9.462;2022-08-19T09:29:55;15.00;;;10.50;;
56291;SDS011;54008;53.606;9.462;2022-08-19T09:32:21;14.23;;;10.13;;
56291;SDS011;54008;53.606;9.462;2022-08-19T09:34:47;12.80;;;9.68;;
56291;SDS011;54008;53.606;9.462;2022-08-19T09:37:12;13.77;;;10.25;;
56291;SDS011;54008;53.606;9.462;2022-08-19T09:39:38;13.98;;;10.75;;
56291;SDS011;54008;53.606;9.462;2022-08-19T09:42:05;16.50;;;10.50;;
56291;SDS011;54008;53.606;9.462;2022-08-19T09:44:36;12.85;;;10.13;;
56291;SDS011;54008;53.606;9.462;2022-08-19T09:47:02;13.43;;;9.65;;
56291;SDS011;54008;53.606;9.462;2022-08-19T09:49:28;15.15;;;10.63;;
56291;SDS011;54008;53.606;9.462;2022-08-19T09:51:53;15.02;;;10.15;;
56291;SDS011;54008;53.606;9.462;2022-08-19T09:54:20;13.65;;;10.40;;
56291;SDS011;54008;53.606;9.462;2022-08-19T09:56:46;13.55;;;9.15;;
56291;SDS011;54008;53.606;9.462;2022-08-19T09:59:11;13.67;;;9.87;;
56291;SDS011;54008;53.606;9.462;2022-08-19T10:01:37;15.73;;;9.80;;
56291;SDS011;54008;53.606;9.462;2022-08-19T10:04:02;14.52;;;10.20;;
56291;SDS011;54008;53.606;9.462;2022-08-19T10:08:58;15.43;;;10.50;;
56291;SDS011;54008;53.606;9.462;2022-08-19T10:11:24;16.63;;;10.45;;
56291;SDS011;54008;53.606;9.462;2022-08-19T10:13:51;12.13;;;9.77;;
56291;SDS011;54008;53.606;9.462;2022-08-19T10:16:17;13.85;;;10.57;;
56291;SDS011;54008;53.606;9.462;2022-08-19T10:18:47;13.60;;;10.40;;
56291;SDS011;54008;53.606;9.462;2022-08-19T10:21:13;16.08;;;10.40;;
56291;SDS011;54008;53.606;9.462;2022-08-19T10:23:42;15.98;;;11.43;;
56291;SDS011;54008;53.606;9.462;2022-08-19T10:26:10;13.73;;;9.27;;
56291;SDS011;54008;53.606;9.462;2022-08-19T10:28:38;14.57;;;10.65;;
56291;SDS011;54008;53.606;9.462;2022-08-19T10:31:05;14.40;;;10.98;;
56291;SDS011;54008;53.606;9.462;2022-08-19T10:33:35;14.38;;;10.27;;
56291;SDS011;54008;53.606;9.462;2022-08-19T10:36:09;15.82;;;11.25;;
56291;SDS011;54008;53.606;9.462;2022-08-19T10:38:38;17.30;;;10.52;;
56291;SDS011;54008;53.606;9.462;2022-08-19T10:41:11;16.38;;;10.75;;
56291;SDS011;54008;53.606;9.462;2022-08-19T10:43:39;14.48;;;10.88;;
56291;SDS011;54008;53.606;9.462;2022-08-19T10:46:07;13.90;;;10.77;;
56291;SDS011;54008;53.606;9.462;2022-08-19T10:48:34;12.55;;;10.50;;
56291;SDS011;54008;53.606;9.462;2022-08-19T10:51:00;12.93;;;10.95;;
56291;SDS011;54008;53.606;9.462;2022-08-19T10:53:45;13.27;;;9.20;;
56291;SDS011;54008;53.606;9.462;2022-08-19T10:56:11;14.93;;;11.80;;
56291;SDS011;54008;53.606;9.462;2022-08-19T10:58:56;15.38;;;11.00;;
56291;SDS011;54008;53.606;9.462;2022-08-19T11:01:22;15.05;;;12.98;;
56291;SDS011;54008;53.606;9.462;2022-08-19T11:03:49;14.82;;;10.75;;
56291;SDS011;54008;53.606;9.462;2022-08-19T11:06:15;13.70;;;10.37;;
56291;SDS011;54008;53.606;9.462;2022-08-19T11:08:40;13.63;;;10.95;;
56291;SDS011;54008;53.606;9.462;2022-08-19T11:11:06;14.43;;;10.40;;
56291;SDS011;54008;53.606;9.462;2022-08-19T11:13:36;14.23;;;11.02;;
56291;SDS011;54008;53.606;9.462;2022-08-19T11:16:06;13.52;;;10.20;;
56291;SDS011;54008;53.606;9.462;2022-08-19T11:18:39;15.67;;;10.47;;
56291;SDS011;54008;53.606;9.462;2022-08-19T11:21:24;13.40;;;10.40;;
56291;SDS011;54008;53.606;9.462;2022-08-19T11:23:57;16.75;;;10.32;;
56291;SDS011;54008;53.606;9.462;2022-08-19T11:26:25;13.90;;;10.70;;
56291;SDS011;54008;53.606;9.462;2022-08-19T11:28:51;14.63;;;11.18;;
56291;SDS011;54008;53.606;9.462;2022-08-19T11:31:20;12.07;;;9.30;;
56291;SDS011;54008;53.606;9.462;2022-08-19T11:33:47;11.95;;;9.23;;
56291;SDS011;54008;53.606;9.462;2022-08-19T11:36:15;14.40;;;9.73;;
56291;SDS011;54008;53.606;9.462;2022-08-19T11:38:41;10.98;;;9.48;;
56291;SDS011;54008;53.606;9.462;2022-08-19T11:41:07;12.52;;;10.00;;
56291;SDS011;54008;53.606;9.462;2022-08-19T11:43:33;11.13;;;9.30;;
56291;SDS011;54008;53.606;9.462;2022-08-19T11:45:59;12.10;;;9.95;;
56291;SDS011;54008;53.606;9.462;2022-08-19T11:48:24;10.88;;;9.65;;
56291;SDS011;54008;53.606;9.462;2022-08-19T11:50:50;13.57;;;10.40;;
56291;SDS011;54008;53.606;9.462;2022-08-19T11:53:17;12.25;;;9.77;;
56291;SDS011;54008;53.606;9.462;2022-08-19T11:55:45;12.32;;;9.52;;
56291;SDS011;54008;53.606;9.462;2022-08-19T11:58:12;11.75;;;9.95;;
56291;SDS011;54008;53.606;9.462;2022-08-19T12:00:38;11.98;;;9.93;;
56291;SDS011;54008;53.606;9.462;2022-08-19T12:03:04;12.00;;;9.93;;
56291;SDS011;54008;53.606;9.462;2022-08-19T12:05:29;13.97;;;10.47;;
56291;SDS011;54008;53.606;9.462;2022-08-19T12:07:55;14.57;;;10.60;;
56291;SDS011;54008;53.606;9.462;2022-08-19T12:10:21;11.93;;;9.25;;
56291;SDS011;54008;53.606;9.462;2022-08-19T12:12:47;13.05;;;9.48;;
56291;SDS011;54008;53.606;9.462;2022-08-19T12:15:12;12.68;;;9.55;;
56291;SDS011;54008;53.606;9.462;2022-08-19T12:17:39;12.05;;;9.93;;
56291;SDS011;54008;53.606;9.462;2022-08-19T12:20:06;11.77;;;9.88;;
56291;SDS011;54008;53.606;9.462;2022-08-19T12:22:34;12.75;;;9.50;;
56291;SDS011;54008;53.606;9.462;2022-08-19T12:25:00;10.68;;;9.57;;
56291;SDS011;54008;53.606;9.462;2022-08-19T12:27:26;12.45;;;9.68;;
56291;SDS011;54008;53.606;9.462;2022-08-19T12:29:54;12.85;;;9.43;;
56291;SDS011;54008;53.606;9.462;2022-08-19T12:32:19;12.27;;;10.35;;
56291;SDS011;54008;53.606;9.462;2022-08-19T12:34:44;11.07;;;9.47;;
56291;SDS011;54008;53.606;9.462;2022-08-19T12:37:12;11.77;;;9.70;;
56291;SDS011;54008;53.606;9.462;2022-08-19T12:39:39;12.95;;;10.77;;
56291;SDS011;54008;53.606;9.462;2022-08-19T12:42:06;14.50;;;11.00;;
56291;SDS011;54008;53.606;9.462;2022-08-19T12:44:34;12.73;;;9.90;;
56291;SDS011;54008;53.606;9.462;2022-08-19T12:47:01;12.55;;;10.40;;
56291;SDS011;54008;53.606;9.462;2022-08-19T12:49:28;12.48;;;10.70;;
56291;SDS011;54008;53.606;9.462;2022-08-19T12:51:54;10.68;;;8.38;;
56291;SDS011;54008;53.606;9.462;2022-08-19T12:54:21;11.32;;;9.43;;
56291;SDS011;54008;53.606;9.462;2022-08-19T12:56:47;10.57;;;9.48;;
56291;SDS011;54008;53.606;9.462;2022-08-19T12:59:13;13.13;;;10.57;;
56291;SDS011;54008;53.606;9.462;2022-08-19T13:01:39;12.52;;;10.43;;
56291;SDS011;54008;53.606;9.462;2022-08-19T13:04:05;12.43;;;10.07;;
56291;SDS011;54008;53.606;9.462;2022-08-19T13:06:31;13.80;;;10.60;;
56291;SDS011;54008;53.606;9.462;2022-08-19T13:08:56;10.47;;;9.27;;
56291;SDS011;54008;53.606;9.462;2022-08-19T13:11:22;11.55;;;9.93;;
56291;SDS011;54008;53.606;9.462;2022-08-19T13:13:49;10.77;;;9.07;;
56291;SDS011;54008;53.606;9.462;2022-08-19T13:16:16;12.35;;;9.82;;
56291;SDS011;54008;53.606;9.462;2022-08-19T13:18:42;10.27;;;9.18;;
56291;SDS011;54008;53.606;9.462;2022-08-19T13:23:38;12.32;;;9.57;;
56291;SDS011;54008;53.606;9.462;2022-08-19T13:26:06;10.80;;;9.65;;
56291;SDS011;54008;53.606;9.462;2022-08-19T13:28:33;10.35;;;8.30;;
56291;SDS011;54008;53.606;9.462;2022-08-19T13:31:19;10.98;;;9.02;;
56291;SDS011;54008;53.606;9.462;2022-08-19T13:34:04;11.25;;;9.10;;
56291;SDS011;54008;53.606;9.462;2022-08-19T13:36:30;10.35;;;8.43;;
56291;SDS011;54008;53.606;9.462;2022-08-19T13:38:56;13.27;;;9.15;;
56291;SDS011;54008;53.606;9.462;2022-08-19T13:41:21;10.80;;;9.17;;
56291;SDS011;54008;53.606;9.462;2022-08-19T13:43:49;10.38;;;9.35;;
56291;SDS011;54008;53.606;9.462;2022-08-19T13:46:14;9.73;;;8.65;;
56291;SDS011;54008;53.606;9.462;2022-08-19T13:48:40;10.53;;;8.97;;
56291;SDS011;54008;53.606;9.462;2022-08-19T13:51:07;10.73;;;7.93;;
56291;SDS011;54008;53.606;9.462;2022-08-19T13:53:38;11.00;;;8.07;;
56291;SDS011;54008;53.606;9.462;2022-08-19T13:56:08;10.23;;;8.18;;
56291;SDS011;54008;53.606;9.462;2022-08-19T13:58:35;9.25;;;8.25;;
56291;SDS011;54008;53.606;9.462;2022-08-19T14:01:01;12.35;;;9.05;;
56291;SDS011;54008;53.606;9.462;2022-08-19T14:03:26;10.15;;;8.23;;
56291;SDS011;54008;53.606;9.462;2022-08-19T14:05:52;10.65;;;7.18;;
56291;SDS011;54008;53.606;9.462;2022-08-19T14:08:17;8.15;;;7.25;;
56291;SDS011;54008;53.606;9.462;2022-08-19T14:10:43;7.70;;;6.90;;
56291;SDS011;54008;53.606;9.462;2022-08-19T14:13:12;10.52;;;8.00;;
56291;SDS011;54008;53.606;9.462;2022-08-19T14:15:39;13.98;;;8.85;;
56291;SDS011;54008;53.606;9.462;2022-08-19T14:18:04;9.35;;;7.80;;
56291;SDS011;54008;53.606;9.462;2022-08-19T14:20:30;9.50;;;7.50;;
56291;SDS011;54008;53.606;9.462;2022-08-19T14:22:55;9.70;;;7.60;;
56291;SDS011;54008;53.606;9.462;2022-08-19T14:25:22;8.93;;;7.87;;
56291;SDS011;54008;53.606;9.462;2022-08-19T14:27:50;9.73;;;7.67;;
56291;SDS011;54008;53.606;9.462;2022-08-19T14:30:19;8.43;;;7.05;;
56291;SDS011;54008;53.606;9.462;2022-08-19T14:32:53;8.98;;;7.10;;
56291;SDS011;54008;53.606;9.462;2022-08-19T14:35:23;10.05;;;8.95;;
56291;SDS011;54008;53.606;9.462;2022-08-19T14:37:50;8.75;;;7.85;;
56291;SDS011;54008;53.606;9.462;2022-08-19T14:40:21;6.93;;;6.22;;
56291;SDS011;54008;53.606;9.462;2022-08-19T14:45:16;8.30;;;6.40;;
56291;SDS011;54008;53.606;9.462;2022-08-19T14:47:41;8.17;;;5.10;;
56291;SDS011;54008;53.606;9.462;2022-08-19T14:50:07;7.97;;;5.63;;
56291;SDS011;54008;53.606;9.462;2022-08-19T14:52:34;7.63;;;6.05;;
56291;SDS011;54008;53.606;9.462;2022-08-19T14:54:59;8.82;;;7.72;;
56291;SDS011;54008;53.606;9.462;2022-08-19T14:57:25;8.57;;;7.50;;
56291;SDS011;54008;53.606;9.462;2022-08-19T14:59:50;8.33;;;7.20;;
56291;SDS011;54008;53.606;9.462;2022-08-19T15:02:16;8.23;;;6.53;;